sensor_id;sensor_type;location;lat;lon;timestamp;temperature;humidity
4399;DHT22;2213;49.720;7.296;2022-08-01T00:01:57;22.30;95.00
4399;DHT22;2213;49.720;7.296;2022-08-01T00:04:48;22.30;95.20
4399;DHT22;2213;49.720;7.296;2022-08-01T00:07:41;22.30;95.40
4399;DHT22;2213;49.720;7.296;2022-08-01T00:10:37;22.30;95.40
4399;DHT22;2213;49.720;7.296;2022-08-01T00:20:38;22.20;95.50
4399;DHT22;2213;49.720;7.296;2022-08-01T00:23:23;22.20;95.50
4399;DHT22;2213;49.720;7.296;2022-08-01T00:26:22;22.30;95.50
4399;DHT22;2213;49.720;7.296;2022-08-01T00:28:53;22.20;95.60
4399;DHT22;2213;49.720;7.296;2022-08-01T00:31:22;22.00;95.90
4399;DHT22;2213;49.720;7.296;2022-08-01T00:34:12;22.00;95.90
4399;DHT22;2213;49.720;7.296;2022-08-01T00:37:12;21.90;96.10
4399;DHT22;2213;49.720;7.296;2022-08-01T00:40:00;22.00;96.00
4399;DHT22;2213;49.720;7.296;2022-08-01T00:42:35;21.90;96.10
4399;DHT22;2213;49.720;7.296;2022-08-01T00:45:15;22.00;96.10
4399;DHT22;2213;49.720;7.296;2022-08-01T00:47:51;21.90;96.10
4399;DHT22;2213;49.720;7.296;2022-08-01T00:50:21;21.90;96.10
4399;DHT22;2213;49.720;7.296;2022-08-01T00:53:15;21.90;96.00
4399;DHT22;2213;49.720;7.296;2022-08-01T00:59:22;21.90;96.00
4399;DHT22;2213;49.720;7.296;2022-08-01T01:02:06;21.80;96.10
4399;DHT22;2213;49.720;7.296;2022-08-01T01:04:50;21.80;96.20
4399;DHT22;2213;49.720;7.296;2022-08-01T01:07:34;21.70;96.10
4399;DHT22;2213;49.720;7.296;2022-08-01T01:13:37;21.80;96.00
4399;DHT22;2213;49.720;7.296;2022-08-01T01:16:49;21.70;96.00
4399;DHT22;2213;49.720;7.296;2022-08-01T01:19:35;21.70;96.00
4399;DHT22;2213;49.720;7.296;2022-08-01T01:23:29;21.70;96.20
4399;DHT22;2213;49.720;7.296;2022-08-01T01:34:08;21.50;96.30
4399;DHT22;2213;49.720;7.296;2022-08-01T01:36:48;21.50;96.40
4399;DHT22;2213;49.720;7.296;2022-08-01T01:39:50;21.50;96.30
4399;DHT22;2213;49.720;7.296;2022-08-01T01:42:42;21.40;96.30
4399;DHT22;2213;49.720;7.296;2022-08-01T01:45:32;21.30;96.50
4399;DHT22;2213;49.720;7.296;2022-08-01T01:48:38;21.30;96.60
4399;DHT22;2213;49.720;7.296;2022-08-01T01:52:13;21.30;96.70
4399;DHT22;2213;49.720;7.296;2022-08-01T01:55:48;21.20;96.70
4399;DHT22;2213;49.720;7.296;2022-08-01T01:58:45;21.20;96.70
4399;DHT22;2213;49.720;7.296;2022-08-01T02:01:44;21.20;96.60
4399;DHT22;2213;49.720;7.296;2022-08-01T02:04:51;21.20;96.50
4399;DHT22;2213;49.720;7.296;2022-08-01T02:08:04;21.10;96.80
4399;DHT22;2213;49.720;7.296;2022-08-01T02:10:48;21.00;96.90
4399;DHT22;2213;49.720;7.296;2022-08-01T02:14:20;21.00;97.00
4399;DHT22;2213;49.720;7.296;2022-08-01T02:16:56;21.00;97.10
4399;DHT22;2213;49.720;7.296;2022-08-01T02:24:48;21.00;97.00
4399;DHT22;2213;49.720;7.296;2022-08-01T02:27:04;21.00;96.80
4399;DHT22;2213;49.720;7.296;2022-08-01T02:30:04;21.00;97.10
4399;DHT22;2213;49.720;7.296;2022-08-01T02:33:21;21.00;96.90
4399;DHT22;2213;49.720;7.296;2022-08-01T02:36:09;20.90;97.10
4399;DHT22;2213;49.720;7.296;2022-08-01T02:39:31;21.00;96.80
4399;DHT22;2213;49.720;7.296;2022-08-01T02:42:37;20.90;97.20
4399;DHT22;2213;49.720;7.296;2022-08-01T02:45:13;20.80;97.30
4399;DHT22;2213;49.720;7.296;2022-08-01T02:48:09;20.80;97.30
4399;DHT22;2213;49.720;7.296;2022-08-01T02:51:18;20.80;97.50
4399;DHT22;2213;49.720;7.296;2022-08-01T02:54:03;20.70;97.70
4399;DHT22;2213;49.720;7.296;2022-08-01T02:56:46;20.70;97.60
4399;DHT22;2213;49.720;7.296;2022-08-01T02:59:29;20.70;97.40
4399;DHT22;2213;49.720;7.296;2022-08-01T03:02:39;20.70;97.40
4399;DHT22;2213;49.720;7.296;2022-08-01T03:05:35;20.70;97.60
4399;DHT22;2213;49.720;7.296;2022-08-01T03:08:15;20.70;97.80
4399;DHT22;2213;49.720;7.296;2022-08-01T03:10:55;20.60;97.70
4399;DHT22;2213;49.720;7.296;2022-08-01T03:14:04;20.60;97.90
4399;DHT22;2213;49.720;7.296;2022-08-01T03:16:49;20.60;97.70
4399;DHT22;2213;49.720;7.296;2022-08-01T03:19:26;20.50;97.80
4399;DHT22;2213;49.720;7.296;2022-08-01T03:22:24;20.50;97.70
4399;DHT22;2213;49.720;7.296;2022-08-01T03:25:22;20.50;97.80
4399;DHT22;2213;49.720;7.296;2022-08-01T03:28:07;20.50;97.90
4399;DHT22;2213;49.720;7.296;2022-08-01T03:31:35;20.50;97.70
4399;DHT22;2213;49.720;7.296;2022-08-01T03:34:36;20.40;97.90
4399;DHT22;2213;49.720;7.296;2022-08-01T03:37:26;20.40;97.70
4399;DHT22;2213;49.720;7.296;2022-08-01T03:40:39;20.40;97.90
4399;DHT22;2213;49.720;7.296;2022-08-01T03:47:01;20.10;98.30
4399;DHT22;2213;49.720;7.296;2022-08-01T03:50:18;20.10;98.80
4399;DHT22;2213;49.720;7.296;2022-08-01T03:53:22;20.10;98.50
4399;DHT22;2213;49.720;7.296;2022-08-01T03:56:11;20.10;98.40
4399;DHT22;2213;49.720;7.296;2022-08-01T03:58:48;20.10;98.30
4399;DHT22;2213;49.720;7.296;2022-08-01T04:01:40;20.00;98.50
4399;DHT22;2213;49.720;7.296;2022-08-01T04:08:44;20.00;98.50
4399;DHT22;2213;49.720;7.296;2022-08-01T04:11:30;19.90;98.80
4399;DHT22;2213;49.720;7.296;2022-08-01T04:14:19;19.90;98.60
4399;DHT22;2213;49.720;7.296;2022-08-01T04:16:48;19.90;98.60
4399;DHT22;2213;49.720;7.296;2022-08-01T04:19:31;19.80;98.80
4399;DHT22;2213;49.720;7.296;2022-08-01T04:22:07;19.80;99.00
4399;DHT22;2213;49.720;7.296;2022-08-01T04:29:06;19.80;99.00
4399;DHT22;2213;49.720;7.296;2022-08-01T04:31:36;19.70;98.90
4399;DHT22;2213;49.720;7.296;2022-08-01T04:34:46;19.70;99.00
4399;DHT22;2213;49.720;7.296;2022-08-01T04:38:20;19.70;99.20
4399;DHT22;2213;49.720;7.296;2022-08-01T04:41:43;19.60;99.50
4399;DHT22;2213;49.720;7.296;2022-08-01T04:44:57;19.60;99.30
4399;DHT22;2213;49.720;7.296;2022-08-01T04:47:43;19.60;99.50
4399;DHT22;2213;49.720;7.296;2022-08-01T04:51:21;19.60;99.60
4399;DHT22;2213;49.720;7.296;2022-08-01T05:01:03;19.70;99.70
4399;DHT22;2213;49.720;7.296;2022-08-01T05:04:13;19.70;99.40
4399;DHT22;2213;49.720;7.296;2022-08-01T05:07:03;19.70;99.70
4399;DHT22;2213;49.720;7.296;2022-08-01T05:14:06;19.70;99.90
4399;DHT22;2213;49.720;7.296;2022-08-01T05:17:12;19.70;99.80
4399;DHT22;2213;49.720;7.296;2022-08-01T05:19:51;19.70;99.90
4399;DHT22;2213;49.720;7.296;2022-08-01T05:22:42;19.70;99.90
4399;DHT22;2213;49.720;7.296;2022-08-01T05:25:12;19.70;99.90
4399;DHT22;2213;49.720;7.296;2022-08-01T05:28:35;19.80;99.80
4399;DHT22;2213;49.720;7.296;2022-08-01T05:31:05;19.80;99.80
4399;DHT22;2213;49.720;7.296;2022-08-01T05:33:34;19.80;99.90
4399;DHT22;2213;49.720;7.296;2022-08-01T05:36:04;19.90;99.90
4399;DHT22;2213;49.720;7.296;2022-08-01T05:38:32;19.90;99.90
4399;DHT22;2213;49.720;7.296;2022-08-01T05:41:01;20.00;99.80
4399;DHT22;2213;49.720;7.296;2022-08-01T05:43:30;20.00;99.80
4399;DHT22;2213;49.720;7.296;2022-08-01T05:46:00;20.00;99.90
4399;DHT22;2213;49.720;7.296;2022-08-01T05:48:30;20.00;99.90
4399;DHT22;2213;49.720;7.296;2022-08-01T05:50:59;19.90;99.90
4399;DHT22;2213;49.720;7.296;2022-08-01T05:53:28;19.80;99.90
4399;DHT22;2213;49.720;7.296;2022-08-01T05:55:56;19.80;99.90
4399;DHT22;2213;49.720;7.296;2022-08-01T05:58:25;20.00;99.90
4399;DHT22;2213;49.720;7.296;2022-08-01T06:00:53;20.00;99.90
4399;DHT22;2213;49.720;7.296;2022-08-01T06:03:22;20.00;99.90
4399;DHT22;2213;49.720;7.296;2022-08-01T06:05:52;20.10;99.90
4399;DHT22;2213;49.720;7.296;2022-08-01T06:08:22;20.10;99.90
4399;DHT22;2213;49.720;7.296;2022-08-01T06:10:51;20.20;99.90
4399;DHT22;2213;49.720;7.296;2022-08-01T06:13:21;20.20;99.80
4399;DHT22;2213;49.720;7.296;2022-08-01T06:15:49;20.20;99.90
4399;DHT22;2213;49.720;7.296;2022-08-01T06:18:19;20.30;99.80
4399;DHT22;2213;49.720;7.296;2022-08-01T06:20:47;20.30;99.80
4399;DHT22;2213;49.720;7.296;2022-08-01T06:23:17;20.30;99.60
4399;DHT22;2213;49.720;7.296;2022-08-01T06:25:59;20.40;99.50
4399;DHT22;2213;49.720;7.296;2022-08-01T06:28:28;20.60;99.50
4399;DHT22;2213;49.720;7.296;2022-08-01T06:30:57;20.50;99.60
4399;DHT22;2213;49.720;7.296;2022-08-01T06:33:27;20.60;99.50
4399;DHT22;2213;49.720;7.296;2022-08-01T06:35:57;20.60;99.60
4399;DHT22;2213;49.720;7.296;2022-08-01T06:38:27;20.60;99.60
4399;DHT22;2213;49.720;7.296;2022-08-01T06:40:55;20.80;99.40
4399;DHT22;2213;49.720;7.296;2022-08-01T06:43:24;20.90;99.40
4399;DHT22;2213;49.720;7.296;2022-08-01T06:45:53;21.00;99.40
4399;DHT22;2213;49.720;7.296;2022-08-01T06:48:21;21.00;99.20
4399;DHT22;2213;49.720;7.296;2022-08-01T06:50:51;21.00;99.00
4399;DHT22;2213;49.720;7.296;2022-08-01T06:53:37;20.90;99.30
4399;DHT22;2213;49.720;7.296;2022-08-01T06:56:07;20.90;99.40
4399;DHT22;2213;49.720;7.296;2022-08-01T06:58:36;20.90;99.30
4399;DHT22;2213;49.720;7.296;2022-08-01T07:01:05;21.00;99.10
4399;DHT22;2213;49.720;7.296;2022-08-01T07:03:35;21.10;99.10
4399;DHT22;2213;49.720;7.296;2022-08-01T07:06:22;21.10;99.10
4399;DHT22;2213;49.720;7.296;2022-08-01T07:08:52;21.10;99.10
4399;DHT22;2213;49.720;7.296;2022-08-01T07:11:22;21.10;99.00
4399;DHT22;2213;49.720;7.296;2022-08-01T07:13:51;21.10;99.00
4399;DHT22;2213;49.720;7.296;2022-08-01T07:16:20;21.00;99.20
4399;DHT22;2213;49.720;7.296;2022-08-01T07:18:49;21.10;99.10
4399;DHT22;2213;49.720;7.296;2022-08-01T07:21:18;21.20;98.90
4399;DHT22;2213;49.720;7.296;2022-08-01T07:24:07;21.20;98.90
4399;DHT22;2213;49.720;7.296;2022-08-01T07:26:41;21.30;98.70
4399;DHT22;2213;49.720;7.296;2022-08-01T07:29:20;21.20;98.90
4399;DHT22;2213;49.720;7.296;2022-08-01T07:31:51;21.20;98.90
4399;DHT22;2213;49.720;7.296;2022-08-01T07:34:20;21.30;98.70
4399;DHT22;2213;49.720;7.296;2022-08-01T07:36:50;21.40;98.60
4399;DHT22;2213;49.720;7.296;2022-08-01T07:39:20;21.30;98.50
4399;DHT22;2213;49.720;7.296;2022-08-01T07:41:49;21.30;98.50
4399;DHT22;2213;49.720;7.296;2022-08-01T07:44:34;21.50;98.40
4399;DHT22;2213;49.720;7.296;2022-08-01T07:47:04;21.60;98.30
4399;DHT22;2213;49.720;7.296;2022-08-01T07:49:33;21.70;98.30
4399;DHT22;2213;49.720;7.296;2022-08-01T07:52:06;21.70;98.20
4399;DHT22;2213;49.720;7.296;2022-08-01T07:54:37;21.70;98.30
4399;DHT22;2213;49.720;7.296;2022-08-01T07:57:05;21.60;98.00
4399;DHT22;2213;49.720;7.296;2022-08-01T07:59:35;21.50;98.40
4399;DHT22;2213;49.720;7.296;2022-08-01T08:02:04;21.40;98.40
4399;DHT22;2213;49.720;7.296;2022-08-01T08:04:33;21.40;98.60
4399;DHT22;2213;49.720;7.296;2022-08-01T08:07:02;21.60;98.40
4399;DHT22;2213;49.720;7.296;2022-08-01T08:09:32;21.60;98.30
4399;DHT22;2213;49.720;7.296;2022-08-01T08:12:06;21.60;98.50
4399;DHT22;2213;49.720;7.296;2022-08-01T08:14:35;21.60;98.40
4399;DHT22;2213;49.720;7.296;2022-08-01T08:17:04;21.70;98.50
4399;DHT22;2213;49.720;7.296;2022-08-01T08:19:33;21.70;98.40
4399;DHT22;2213;49.720;7.296;2022-08-01T08:22:05;21.80;98.30
4399;DHT22;2213;49.720;7.296;2022-08-01T08:24:36;21.80;98.10
4399;DHT22;2213;49.720;7.296;2022-08-01T08:27:14;21.80;98.10
4399;DHT22;2213;49.720;7.296;2022-08-01T08:29:46;21.90;98.00
4399;DHT22;2213;49.720;7.296;2022-08-01T08:32:14;22.00;97.90
4399;DHT22;2213;49.720;7.296;2022-08-01T08:34:44;22.10;97.70
4399;DHT22;2213;49.720;7.296;2022-08-01T08:37:15;22.20;97.80
4399;DHT22;2213;49.720;7.296;2022-08-01T08:39:47;22.30;97.70
4399;DHT22;2213;49.720;7.296;2022-08-01T08:42:17;22.20;97.40
4399;DHT22;2213;49.720;7.296;2022-08-01T08:44:46;22.10;97.60
4399;DHT22;2213;49.720;7.296;2022-08-01T08:47:15;22.10;97.50
4399;DHT22;2213;49.720;7.296;2022-08-01T08:49:47;22.10;97.50
4399;DHT22;2213;49.720;7.296;2022-08-01T08:52:19;22.30;97.70
4399;DHT22;2213;49.720;7.296;2022-08-01T08:54:50;22.30;97.40
4399;DHT22;2213;49.720;7.296;2022-08-01T08:57:21;22.40;97.30
4399;DHT22;2213;49.720;7.296;2022-08-01T08:59:50;22.30;97.00
4399;DHT22;2213;49.720;7.296;2022-08-01T09:02:21;22.30;97.00
4399;DHT22;2213;49.720;7.296;2022-08-01T09:04:50;22.30;97.10
4399;DHT22;2213;49.720;7.296;2022-08-01T09:07:19;22.30;96.90
4399;DHT22;2213;49.720;7.296;2022-08-01T09:09:50;22.50;96.70
4399;DHT22;2213;49.720;7.296;2022-08-01T09:12:21;22.50;96.50
4399;DHT22;2213;49.720;7.296;2022-08-01T09:14:50;22.60;96.40
4399;DHT22;2213;49.720;7.296;2022-08-01T09:17:20;22.70;96.50
4399;DHT22;2213;49.720;7.296;2022-08-01T09:19:51;22.80;96.40
4399;DHT22;2213;49.720;7.296;2022-08-01T09:22:22;23.00;96.10
4399;DHT22;2213;49.720;7.296;2022-08-01T09:25:01;23.00;95.90
4399;DHT22;2213;49.720;7.296;2022-08-01T09:27:35;23.10;95.60
4399;DHT22;2213;49.720;7.296;2022-08-01T09:30:14;23.20;95.20
4399;DHT22;2213;49.720;7.296;2022-08-01T09:32:54;23.10;94.90
4399;DHT22;2213;49.720;7.296;2022-08-01T09:35:26;23.20;95.00
4399;DHT22;2213;49.720;7.296;2022-08-01T09:38:15;23.30;94.60
4399;DHT22;2213;49.720;7.296;2022-08-01T09:40:46;23.20;94.80
4399;DHT22;2213;49.720;7.296;2022-08-01T09:43:19;23.30;94.90
4399;DHT22;2213;49.720;7.296;2022-08-01T09:45:53;23.40;94.60
4399;DHT22;2213;49.720;7.296;2022-08-01T09:48:24;23.50;94.80
4399;DHT22;2213;49.720;7.296;2022-08-01T09:50:56;23.30;95.00
4399;DHT22;2213;49.720;7.296;2022-08-01T09:53:44;23.50;95.10
4399;DHT22;2213;49.720;7.296;2022-08-01T09:56:17;23.60;95.00
4399;DHT22;2213;49.720;7.296;2022-08-01T09:58:52;23.60;94.50
4399;DHT22;2213;49.720;7.296;2022-08-01T10:01:28;23.60;94.40
4399;DHT22;2213;49.720;7.296;2022-08-01T10:04:11;23.70;94.60
4399;DHT22;2213;49.720;7.296;2022-08-01T10:06:43;23.70;94.30
4399;DHT22;2213;49.720;7.296;2022-08-01T10:09:13;23.60;94.10
4399;DHT22;2213;49.720;7.296;2022-08-01T10:11:43;23.80;94.70
4399;DHT22;2213;49.720;7.296;2022-08-01T10:14:13;23.80;94.90
4399;DHT22;2213;49.720;7.296;2022-08-01T10:16:48;23.60;95.00
4399;DHT22;2213;49.720;7.296;2022-08-01T10:19:28;23.80;95.10
4399;DHT22;2213;49.720;7.296;2022-08-01T10:22:00;23.70;95.10
4399;DHT22;2213;49.720;7.296;2022-08-01T10:24:32;23.80;95.10
4399;DHT22;2213;49.720;7.296;2022-08-01T10:27:07;23.80;94.90
4399;DHT22;2213;49.720;7.296;2022-08-01T10:29:47;23.90;94.80
4399;DHT22;2213;49.720;7.296;2022-08-01T10:32:35;23.80;94.50
4399;DHT22;2213;49.720;7.296;2022-08-01T10:35:06;23.80;94.60
4399;DHT22;2213;49.720;7.296;2022-08-01T10:37:41;23.70;94.60
4399;DHT22;2213;49.720;7.296;2022-08-01T10:40:18;23.80;94.70
4399;DHT22;2213;49.720;7.296;2022-08-01T10:42:58;23.90;94.40
4399;DHT22;2213;49.720;7.296;2022-08-01T10:45:29;24.00;94.50
4399;DHT22;2213;49.720;7.296;2022-08-01T10:48:04;24.10;94.30
4399;DHT22;2213;49.720;7.296;2022-08-01T10:50:41;24.20;94.40
4399;DHT22;2213;49.720;7.296;2022-08-01T10:53:16;24.20;94.10
4399;DHT22;2213;49.720;7.296;2022-08-01T10:56:01;24.20;94.00
4399;DHT22;2213;49.720;7.296;2022-08-01T10:58:35;24.20;93.80
4399;DHT22;2213;49.720;7.296;2022-08-01T11:01:21;24.30;93.80
4399;DHT22;2213;49.720;7.296;2022-08-01T11:04:16;24.30;93.30
4399;DHT22;2213;49.720;7.296;2022-08-01T11:06:53;24.40;93.50
4399;DHT22;2213;49.720;7.296;2022-08-01T11:09:43;24.30;93.20
4399;DHT22;2213;49.720;7.296;2022-08-01T11:12:18;24.40;93.80
4399;DHT22;2213;49.720;7.296;2022-08-01T11:15:24;24.40;93.50
4399;DHT22;2213;49.720;7.296;2022-08-01T11:18:00;24.40;93.60
4399;DHT22;2213;49.720;7.296;2022-08-01T11:20:32;24.40;93.30
4399;DHT22;2213;49.720;7.296;2022-08-01T11:23:17;24.60;93.10
4399;DHT22;2213;49.720;7.296;2022-08-01T11:26:19;24.40;93.40
4399;DHT22;2213;49.720;7.296;2022-08-01T11:29:17;24.40;93.50
4399;DHT22;2213;49.720;7.296;2022-08-01T11:31:49;24.40;93.60
4399;DHT22;2213;49.720;7.296;2022-08-01T11:34:53;24.50;93.60
4399;DHT22;2213;49.720;7.296;2022-08-01T11:37:23;24.60;93.20
4399;DHT22;2213;49.720;7.296;2022-08-01T11:40:16;24.70;93.30
4399;DHT22;2213;49.720;7.296;2022-08-01T11:42:49;24.60;93.40
4399;DHT22;2213;49.720;7.296;2022-08-01T11:45:23;24.80;93.30
4399;DHT22;2213;49.720;7.296;2022-08-01T11:48:19;24.80;92.80
4399;DHT22;2213;49.720;7.296;2022-08-01T11:50:56;24.70;92.70
4399;DHT22;2213;49.720;7.296;2022-08-01T11:53:28;24.70;92.90
4399;DHT22;2213;49.720;7.296;2022-08-01T11:55:58;24.70;92.70
4399;DHT22;2213;49.720;7.296;2022-08-01T11:58:26;24.70;92.90
4399;DHT22;2213;49.720;7.296;2022-08-01T12:00:58;24.90;92.60
4399;DHT22;2213;49.720;7.296;2022-08-01T12:03:29;25.10;92.50
4399;DHT22;2213;49.720;7.296;2022-08-01T12:06:02;25.10;92.50
4399;DHT22;2213;49.720;7.296;2022-08-01T12:08:32;25.20;92.30
4399;DHT22;2213;49.720;7.296;2022-08-01T12:11:04;25.30;92.30
4399;DHT22;2213;49.720;7.296;2022-08-01T12:13:40;25.30;92.10
4399;DHT22;2213;49.720;7.296;2022-08-01T12:16:11;25.30;92.10
4399;DHT22;2213;49.720;7.296;2022-08-01T12:18:41;25.40;91.50
4399;DHT22;2213;49.720;7.296;2022-08-01T12:21:12;25.20;91.20
4399;DHT22;2213;49.720;7.296;2022-08-01T12:23:41;25.40;91.40
4399;DHT22;2213;49.720;7.296;2022-08-01T12:26:10;25.50;90.80
4399;DHT22;2213;49.720;7.296;2022-08-01T12:28:58;25.50;90.60
4399;DHT22;2213;49.720;7.296;2022-08-01T12:31:34;25.70;90.60
4399;DHT22;2213;49.720;7.296;2022-08-01T12:34:24;25.80;90.60
4399;DHT22;2213;49.720;7.296;2022-08-01T12:36:57;25.80;90.30
4399;DHT22;2213;49.720;7.296;2022-08-01T12:39:31;25.70;90.50
4399;DHT22;2213;49.720;7.296;2022-08-01T12:42:01;25.70;90.80
4399;DHT22;2213;49.720;7.296;2022-08-01T12:44:34;25.60;90.40
4399;DHT22;2213;49.720;7.296;2022-08-01T12:47:05;25.70;90.70
4399;DHT22;2213;49.720;7.296;2022-08-01T12:49:37;25.60;90.80
4399;DHT22;2213;49.720;7.296;2022-08-01T12:52:08;25.50;91.20
4399;DHT22;2213;49.720;7.296;2022-08-01T12:55:04;25.80;91.00
4399;DHT22;2213;49.720;7.296;2022-08-01T12:57:39;26.00;90.80
4399;DHT22;2213;49.720;7.296;2022-08-01T13:00:17;26.00;90.60
4399;DHT22;2213;49.720;7.296;2022-08-01T13:02:50;26.10;90.70
4399;DHT22;2213;49.720;7.296;2022-08-01T13:05:27;26.00;90.60
4399;DHT22;2213;49.720;7.296;2022-08-01T13:07:57;25.90;90.40
4399;DHT22;2213;49.720;7.296;2022-08-01T13:10:33;25.90;90.50
4399;DHT22;2213;49.720;7.296;2022-08-01T13:13:04;25.80;90.20
4399;DHT22;2213;49.720;7.296;2022-08-01T13:15:35;26.00;90.30
4399;DHT22;2213;49.720;7.296;2022-08-01T13:18:24;26.20;90.20
4399;DHT22;2213;49.720;7.296;2022-08-01T13:21:08;26.30;89.50
4399;DHT22;2213;49.720;7.296;2022-08-01T13:23:39;26.30;89.40
4399;DHT22;2213;49.720;7.296;2022-08-01T13:26:40;26.20;90.10
4399;DHT22;2213;49.720;7.296;2022-08-01T13:29:12;26.00;90.30
4399;DHT22;2213;49.720;7.296;2022-08-01T13:31:44;26.10;90.10
4399;DHT22;2213;49.720;7.296;2022-08-01T13:34:14;26.20;90.00
4399;DHT22;2213;49.720;7.296;2022-08-01T13:36:44;26.30;90.00
4399;DHT22;2213;49.720;7.296;2022-08-01T13:39:16;26.30;89.60
4399;DHT22;2213;49.720;7.296;2022-08-01T13:42:03;26.30;90.00
4399;DHT22;2213;49.720;7.296;2022-08-01T13:44:33;26.40;89.50
4399;DHT22;2213;49.720;7.296;2022-08-01T13:47:03;26.40;89.30
4399;DHT22;2213;49.720;7.296;2022-08-01T13:49:41;26.70;89.30
4399;DHT22;2213;49.720;7.296;2022-08-01T13:52:10;26.70;88.70
4399;DHT22;2213;49.720;7.296;2022-08-01T13:54:41;26.50;88.40
4399;DHT22;2213;49.720;7.296;2022-08-01T13:57:10;26.30;88.30
4399;DHT22;2213;49.720;7.296;2022-08-01T13:59:41;26.40;87.90
4399;DHT22;2213;49.720;7.296;2022-08-01T14:02:10;26.50;88.30
4399;DHT22;2213;49.720;7.296;2022-08-01T14:04:38;26.40;88.30
4399;DHT22;2213;49.720;7.296;2022-08-01T14:07:07;26.40;88.20
4399;DHT22;2213;49.720;7.296;2022-08-01T14:09:42;26.60;89.10
4399;DHT22;2213;49.720;7.296;2022-08-01T14:12:30;26.70;87.90
4399;DHT22;2213;49.720;7.296;2022-08-01T14:15:00;26.70;87.30
4399;DHT22;2213;49.720;7.296;2022-08-01T14:17:29;26.70;87.40
4399;DHT22;2213;49.720;7.296;2022-08-01T14:20:05;26.60;87.50
4399;DHT22;2213;49.720;7.296;2022-08-01T14:22:34;26.70;87.50
4399;DHT22;2213;49.720;7.296;2022-08-01T14:25:08;26.80;87.50
4399;DHT22;2213;49.720;7.296;2022-08-01T14:27:49;26.70;87.80
4399;DHT22;2213;49.720;7.296;2022-08-01T14:30:19;26.70;87.90
4399;DHT22;2213;49.720;7.296;2022-08-01T14:32:48;26.70;87.70
4399;DHT22;2213;49.720;7.296;2022-08-01T14:35:18;26.70;87.50
4399;DHT22;2213;49.720;7.296;2022-08-01T14:37:46;26.80;87.20
4399;DHT22;2213;49.720;7.296;2022-08-01T14:40:17;26.70;87.30
4399;DHT22;2213;49.720;7.296;2022-08-01T14:42:45;26.80;87.30
4399;DHT22;2213;49.720;7.296;2022-08-01T14:45:15;26.90;87.00
4399;DHT22;2213;49.720;7.296;2022-08-01T14:47:44;26.90;87.20
4399;DHT22;2213;49.720;7.296;2022-08-01T14:50:14;27.00;86.60
4399;DHT22;2213;49.720;7.296;2022-08-01T14:52:43;27.20;86.40
4399;DHT22;2213;49.720;7.296;2022-08-01T14:55:13;27.10;85.90
4399;DHT22;2213;49.720;7.296;2022-08-01T14:57:43;27.20;86.20
4399;DHT22;2213;49.720;7.296;2022-08-01T15:00:12;27.30;85.90
4399;DHT22;2213;49.720;7.296;2022-08-01T15:02:41;27.30;85.20
4399;DHT22;2213;49.720;7.296;2022-08-01T15:05:11;27.30;85.10
4399;DHT22;2213;49.720;7.296;2022-08-01T15:07:39;27.20;84.90
4399;DHT22;2213;49.720;7.296;2022-08-01T15:10:19;27.50;84.80
4399;DHT22;2213;49.720;7.296;2022-08-01T15:12:49;27.80;84.60
4399;DHT22;2213;49.720;7.296;2022-08-01T15:15:21;27.90;84.30
4399;DHT22;2213;49.720;7.296;2022-08-01T15:17:52;27.80;83.30
4399;DHT22;2213;49.720;7.296;2022-08-01T15:20:21;27.90;83.50
4399;DHT22;2213;49.720;7.296;2022-08-01T15:22:51;27.90;83.20
4399;DHT22;2213;49.720;7.296;2022-08-01T15:25:20;28.00;83.60
4399;DHT22;2213;49.720;7.296;2022-08-01T15:27:50;27.90;83.20
4399;DHT22;2213;49.720;7.296;2022-08-01T15:30:19;28.00;83.10
4399;DHT22;2213;49.720;7.296;2022-08-01T15:32:53;28.00;83.20
4399;DHT22;2213;49.720;7.296;2022-08-01T15:35:21;27.90;83.20
4399;DHT22;2213;49.720;7.296;2022-08-01T15:37:51;27.80;83.30
4399;DHT22;2213;49.720;7.296;2022-08-01T15:40:22;27.70;83.20
4399;DHT22;2213;49.720;7.296;2022-08-01T15:42:52;27.60;83.40
4399;DHT22;2213;49.720;7.296;2022-08-01T15:45:21;27.60;83.50
4399;DHT22;2213;49.720;7.296;2022-08-01T15:48:09;27.50;83.70
4399;DHT22;2213;49.720;7.296;2022-08-01T15:50:38;27.50;83.50
4399;DHT22;2213;49.720;7.296;2022-08-01T15:53:07;27.40;84.10
4399;DHT22;2213;49.720;7.296;2022-08-01T15:55:36;27.20;84.30
4399;DHT22;2213;49.720;7.296;2022-08-01T15:58:07;27.30;84.60
4399;DHT22;2213;49.720;7.296;2022-08-01T16:00:38;27.30;84.50
4399;DHT22;2213;49.720;7.296;2022-08-01T16:03:07;27.20;84.60
4399;DHT22;2213;49.720;7.296;2022-08-01T16:05:37;27.20;84.70
4399;DHT22;2213;49.720;7.296;2022-08-01T16:08:10;27.00;84.80
4399;DHT22;2213;49.720;7.296;2022-08-01T16:10:39;27.00;85.20
4399;DHT22;2213;49.720;7.296;2022-08-01T16:13:10;27.00;85.30
4399;DHT22;2213;49.720;7.296;2022-08-01T16:15:39;27.00;85.30
4399;DHT22;2213;49.720;7.296;2022-08-01T16:18:09;27.00;85.30
4399;DHT22;2213;49.720;7.296;2022-08-01T16:20:40;27.00;85.50
4399;DHT22;2213;49.720;7.296;2022-08-01T16:23:13;26.90;85.70
4399;DHT22;2213;49.720;7.296;2022-08-01T16:25:42;26.80;85.80
4399;DHT22;2213;49.720;7.296;2022-08-01T16:28:12;26.80;86.00
4399;DHT22;2213;49.720;7.296;2022-08-01T16:30:42;26.90;86.10
4399;DHT22;2213;49.720;7.296;2022-08-01T16:33:27;26.80;86.90
4399;DHT22;2213;49.720;7.296;2022-08-01T16:36:15;26.70;87.70
4399;DHT22;2213;49.720;7.296;2022-08-01T16:38:46;26.70;88.60
4399;DHT22;2213;49.720;7.296;2022-08-01T16:41:16;26.70;89.00
4399;DHT22;2213;49.720;7.296;2022-08-01T16:43:48;26.60;90.00
4399;DHT22;2213;49.720;7.296;2022-08-01T16:46:21;26.50;90.20
4399;DHT22;2213;49.720;7.296;2022-08-01T16:48:51;26.30;90.40
4399;DHT22;2213;49.720;7.296;2022-08-01T16:51:21;26.40;90.40
4399;DHT22;2213;49.720;7.296;2022-08-01T16:53:50;26.50;90.50
4399;DHT22;2213;49.720;7.296;2022-08-01T16:56:19;26.30;90.50
4399;DHT22;2213;49.720;7.296;2022-08-01T16:58:49;26.30;90.70
4399;DHT22;2213;49.720;7.296;2022-08-01T17:01:18;26.40;90.50
4399;DHT22;2213;49.720;7.296;2022-08-01T17:04:11;26.40;90.30
4399;DHT22;2213;49.720;7.296;2022-08-01T17:06:40;26.50;90.30
4399;DHT22;2213;49.720;7.296;2022-08-01T17:09:09;26.60;90.20
4399;DHT22;2213;49.720;7.296;2022-08-01T17:11:37;26.50;90.10
4399;DHT22;2213;49.720;7.296;2022-08-01T17:14:07;26.70;90.10
4399;DHT22;2213;49.720;7.296;2022-08-01T17:16:36;26.80;90.10
4399;DHT22;2213;49.720;7.296;2022-08-01T17:19:05;26.80;89.70
4399;DHT22;2213;49.720;7.296;2022-08-01T17:21:34;26.90;89.50
4399;DHT22;2213;49.720;7.296;2022-08-01T17:24:07;27.00;88.90
4399;DHT22;2213;49.720;7.296;2022-08-01T17:26:42;27.00;89.00
4399;DHT22;2213;49.720;7.296;2022-08-01T17:29:12;26.90;89.10
4399;DHT22;2213;49.720;7.296;2022-08-01T17:31:40;27.00;88.90
4399;DHT22;2213;49.720;7.296;2022-08-01T17:34:09;26.90;89.10
4399;DHT22;2213;49.720;7.296;2022-08-01T17:36:38;26.80;89.30
4399;DHT22;2213;49.720;7.296;2022-08-01T17:39:06;26.70;89.50
4399;DHT22;2213;49.720;7.296;2022-08-01T17:41:35;26.80;89.80
4399;DHT22;2213;49.720;7.296;2022-08-01T17:44:04;26.60;90.00
4399;DHT22;2213;49.720;7.296;2022-08-01T17:46:37;26.50;90.10
4399;DHT22;2213;49.720;7.296;2022-08-01T17:49:05;26.50;90.10
4399;DHT22;2213;49.720;7.296;2022-08-01T17:51:36;26.50;90.20
4399;DHT22;2213;49.720;7.296;2022-08-01T17:54:07;26.50;90.10
4399;DHT22;2213;49.720;7.296;2022-08-01T17:56:36;26.40;90.10
4399;DHT22;2213;49.720;7.296;2022-08-01T17:59:11;26.40;90.10
4399;DHT22;2213;49.720;7.296;2022-08-01T18:01:41;26.40;90.20
4399;DHT22;2213;49.720;7.296;2022-08-01T18:04:11;26.20;90.30